createdAt,value
2023-02-14T00:01:32.124Z,40.07
2023-02-14T00:04:01.753Z,45.60
2023-02-14T00:06:32.686Z,45.83
2023-02-14T00:09:01.217Z,42.20
2023-02-14T00:11:29.998Z,41.93
2023-02-14T00:14:15.775Z,44.23
2023-02-14T00:16:43.844Z,43.23
2023-02-14T00:19:15.279Z,41.90
2023-02-14T00:21:43.569Z,44.07
2023-02-14T00:24:13.506Z,44.27
2023-02-14T00:26:42.522Z,45.97
2023-02-14T00:29:12.779Z,48.60
2023-02-14T00:31:41.959Z,43.63
2023-02-14T00:34:10.573Z,41.50
2023-02-14T00:36:40.452Z,41.67
2023-02-14T00:39:10.074Z,48.30
2023-02-14T00:41:38.902Z,43.43
2023-02-14T00:44:08.154Z,46.00
2023-02-14T00:46:36.608Z,41.73
2023-02-14T00:49:05.132Z,48.03
2023-02-14T00:51:33.420Z,36.87
2023-02-14T00:54:05.335Z,49.30
2023-02-14T00:56:33.609Z,45.10
2023-02-14T00:59:01.639Z,49.43
2023-02-14T01:01:29.905Z,48.03
2023-02-14T01:03:58.907Z,47.47
2023-02-14T01:06:27.138Z,45.57
2023-02-14T01:08:55.218Z,50.23
2023-02-14T01:11:25.428Z,46.30
2023-02-14T01:13:58.764Z,47.77
2023-02-14T01:16:28.551Z,46.60
2023-02-14T01:18:57.322Z,46.23
2023-02-14T01:21:27.452Z,42.67
2023-02-14T01:23:59.378Z,43.73
2023-02-14T01:26:29.956Z,51.13
2023-02-14T01:28:58.088Z,47.63
2023-02-14T01:31:27.941Z,40.93
2023-02-14T01:33:58.820Z,49.80
2023-02-14T01:36:31.261Z,48.53
2023-02-14T01:39:02.308Z,49.47
2023-02-14T01:41:34.260Z,47.47
2023-02-14T01:44:03.873Z,41.30
2023-02-14T01:46:33.733Z,42.00
2023-02-14T01:49:07.163Z,50.23
2023-02-14T01:51:38.144Z,45.83
2023-02-14T01:54:09.069Z,46.30
2023-02-14T01:56:42.665Z,47.10
2023-02-14T01:59:15.708Z,44.50
2023-02-14T02:01:45.085Z,43.40
2023-02-14T02:04:16.903Z,45.03
2023-02-14T02:06:47.590Z,52.23
2023-02-14T02:09:21.022Z,51.67
2023-02-14T02:11:50.723Z,42.47
2023-02-14T02:14:21.361Z,43.93
2023-02-14T02:17:07.932Z,51.50
2023-02-14T02:20:11.921Z,49.97
2023-02-14T02:23:19.491Z,48.30
2023-02-14T02:26:32.213Z,45.10
2023-02-14T02:29:21.349Z,51.87
2023-02-14T02:32:05.743Z,50.73
2023-02-14T02:35:14.945Z,52.87
2023-02-14T02:37:59.906Z,43.70
2023-02-14T02:40:36.655Z,47.60
2023-02-14T02:43:16.969Z,50.37
2023-02-14T02:46:08.636Z,43.50
2023-02-14T02:48:41.579Z,44.13
2023-02-14T02:51:31.240Z,50.87
2023-02-14T02:54:07.478Z,43.27
2023-02-14T02:56:47.234Z,51.17
2023-02-14T02:59:20.761Z,49.30
2023-02-14T03:01:59.223Z,50.97
2023-02-14T03:04:46.320Z,49.93
2023-02-14T03:07:31.992Z,49.63
2023-02-14T03:10:03.534Z,49.97
2023-02-14T03:12:59.313Z,52.90
2023-02-14T03:15:42.102Z,53.83
2023-02-14T03:18:33.829Z,53.47
2023-02-14T03:21:07.916Z,46.37
2023-02-14T03:23:45.044Z,52.50
2023-02-14T03:26:18.046Z,51.30
2023-02-14T03:28:54.546Z,49.80
2023-02-14T03:31:30.779Z,44.87
2023-02-14T03:34:02.697Z,51.80
2023-02-14T03:36:35.788Z,55.13
2023-02-14T03:39:09.530Z,46.00
2023-02-14T03:41:45.045Z,57.67
2023-02-14T03:44:18.297Z,54.50
2023-02-14T03:46:51.068Z,46.03
2023-02-14T03:49:23.182Z,51.83
2023-02-14T03:51:54.259Z,52.27
2023-02-14T03:54:23.719Z,52.10
2023-02-14T03:56:58.036Z,53.90
2023-02-14T03:59:29.526Z,52.13
2023-02-14T04:02:03.275Z,53.50
2023-02-14T04:04:35.900Z,49.13
2023-02-14T04:07:11.232Z,58.27
2023-02-14T04:09:39.388Z,46.47
2023-02-14T04:12:09.491Z,54.70
2023-02-14T04:14:37.982Z,57.20
2023-02-14T04:17:24.441Z,56.60
2023-02-14T04:19:52.658Z,58.03
2023-02-14T04:22:21.043Z,48.73
2023-02-14T04:24:49.077Z,62.33
2023-02-14T04:27:18.438Z,57.77
2023-02-14T04:29:49.967Z,47.83
2023-02-14T04:32:20.117Z,59.47
2023-02-14T04:34:48.667Z,55.63
2023-02-14T04:37:18.539Z,50.73
2023-02-14T04:39:46.675Z,48.83
2023-02-14T04:42:14.775Z,56.00
2023-02-14T04:44:44.161Z,66.57
2023-02-14T04:47:12.177Z,61.53
2023-02-14T04:49:40.233Z,48.20
2023-02-14T04:52:08.290Z,59.43
2023-02-14T04:54:36.274Z,59.70
2023-02-14T04:57:04.328Z,59.30
2023-02-14T04:59:32.374Z,50.67
2023-02-14T05:02:01.908Z,60.17
2023-02-14T05:04:29.900Z,54.50
2023-02-14T05:06:57.909Z,63.93
2023-02-14T05:09:25.917Z,61.47
2023-02-14T05:11:53.890Z,54.83
2023-02-14T05:14:22.052Z,58.13
2023-02-14T05:16:50.111Z,57.53
2023-02-14T05:19:19.460Z,61.20
2023-02-14T05:21:47.461Z,69.40
2023-02-14T05:24:15.577Z,58.63
2023-02-14T05:26:43.605Z,63.43
2023-02-14T05:29:11.906Z,62.87
2023-02-14T05:31:40.000Z,65.77
2023-02-14T05:34:08.186Z,54.43
2023-02-14T05:36:37.512Z,66.17
2023-02-14T05:39:05.960Z,66.37
2023-02-14T05:41:34.024Z,61.00
2023-02-14T05:44:02.051Z,62.17
2023-02-14T05:46:30.127Z,57.87
2023-02-14T05:48:58.147Z,58.33
2023-02-14T05:51:26.305Z,56.90
2023-02-14T05:53:57.745Z,52.13
2023-02-14T05:56:25.772Z,61.40
2023-02-14T05:58:53.804Z,63.20
2023-02-14T06:01:21.869Z,62.13
2023-02-14T06:03:50.623Z,60.93
2023-02-14T06:06:18.863Z,58.27
2023-02-14T06:08:46.868Z,57.37
2023-02-14T06:11:16.216Z,56.40
2023-02-14T06:13:44.245Z,55.40
2023-02-14T06:16:12.404Z,55.40
2023-02-14T06:18:40.476Z,58.23
2023-02-14T06:21:08.620Z,54.30
2023-02-14T06:23:36.729Z,55.77
2023-02-14T06:26:04.947Z,52.60
2023-02-14T06:28:34.300Z,60.13
2023-02-14T06:31:03.155Z,57.73
2023-02-14T06:33:31.435Z,50.07
2023-02-14T06:35:59.474Z,61.00
2023-02-14T06:38:27.533Z,56.57
2023-02-14T06:40:55.606Z,56.57
2023-02-14T06:43:23.606Z,46.70
2023-02-14T06:45:53.016Z,51.13
2023-02-14T06:48:21.044Z,61.97
2023-02-14T06:50:49.277Z,61.63
2023-02-14T06:53:17.300Z,55.40
2023-02-14T06:55:45.525Z,53.30
2023-02-14T06:58:13.646Z,58.53
2023-02-14T07:00:41.814Z,53.90
2023-02-14T07:03:11.177Z,56.17
2023-02-14T07:05:39.189Z,57.23
2023-02-14T07:08:08.183Z,54.00
2023-02-14T07:10:36.409Z,57.47
2023-02-14T07:13:05.131Z,52.70
2023-02-14T07:15:33.451Z,50.73
2023-02-14T07:18:01.509Z,50.90
2023-02-14T07:20:31.014Z,51.70
2023-02-14T07:22:59.013Z,47.77
2023-02-14T07:25:28.278Z,54.10
2023-02-14T07:27:56.300Z,49.43
2023-02-14T07:30:25.070Z,46.50
2023-02-14T07:32:53.183Z,52.47
2023-02-14T07:35:21.224Z,45.63
2023-02-14T07:37:51.383Z,49.47
2023-02-14T07:40:20.077Z,49.83
2023-02-14T07:42:54.847Z,48.00
2023-02-14T07:45:23.717Z,50.10
2023-02-14T07:47:53.170Z,49.47
2023-02-14T07:50:21.775Z,45.50
2023-02-14T07:52:51.224Z,48.10
2023-02-14T07:55:20.259Z,47.07
2023-02-14T07:57:49.264Z,46.60
2023-02-14T08:00:20.158Z,46.33
2023-02-14T08:02:49.396Z,49.27
2023-02-14T08:05:17.680Z,47.20
2023-02-14T08:07:47.282Z,43.27
2023-02-14T08:10:16.903Z,45.57
2023-02-14T08:12:59.791Z,42.60
2023-02-14T08:15:46.435Z,43.57
2023-02-14T08:18:14.759Z,42.40
2023-02-14T08:20:43.706Z,43.13
2023-02-14T08:23:12.443Z,39.23
2023-02-14T08:25:42.258Z,37.70
2023-02-14T08:28:10.523Z,42.77
2023-02-14T08:30:38.841Z,39.70
2023-02-14T08:33:07.175Z,39.50
2023-02-14T08:35:35.308Z,39.83
2023-02-14T08:38:03.699Z,43.73
2023-02-14T08:40:32.429Z,37.40
2023-02-14T08:43:01.840Z,35.50
2023-02-14T08:45:29.975Z,36.77
2023-02-14T08:48:02.568Z,36.93
2023-02-14T08:50:30.609Z,32.63
2023-02-14T08:52:58.650Z,35.17
2023-02-14T08:55:27.872Z,33.53
2023-02-14T08:57:57.555Z,32.40
2023-02-14T09:00:27.350Z,34.20
2023-02-14T09:02:55.519Z,31.60
2023-02-14T09:05:24.310Z,31.63
2023-02-14T09:07:52.608Z,34.43
2023-02-14T09:10:20.736Z,30.97
2023-02-14T09:12:48.986Z,33.03
2023-02-14T09:15:17.147Z,33.33
2023-02-14T09:17:46.575Z,32.40
2023-02-14T09:20:16.375Z,35.20
2023-02-14T09:22:45.504Z,33.17
2023-02-14T09:25:14.273Z,34.60
2023-02-14T09:27:45.971Z,33.97
2023-02-14T09:30:15.295Z,32.83
2023-02-14T09:32:43.322Z,31.53
2023-02-14T09:35:12.782Z,32.00
2023-02-14T09:37:58.240Z,31.87
2023-02-14T09:40:26.586Z,29.13
2023-02-14T09:43:01.990Z,30.90
2023-02-14T09:45:31.948Z,27.37
2023-02-14T09:48:03.953Z,29.80
2023-02-14T09:50:37.979Z,28.13
2023-02-14T09:53:14.228Z,27.57
2023-02-14T09:55:48.241Z,26.57
2023-02-14T09:58:20.297Z,28.33
2023-02-14T10:00:55.482Z,26.87
2023-02-14T10:03:53.967Z,28.00
2023-02-14T10:06:43.886Z,29.07
2023-02-14T10:09:20.569Z,28.47
2023-02-14T10:11:49.762Z,26.17
2023-02-14T10:14:22.024Z,26.70
2023-02-14T10:16:54.757Z,25.63
2023-02-14T10:19:27.308Z,26.27
2023-02-14T10:22:00.701Z,26.23
2023-02-14T10:24:35.056Z,27.07
2023-02-14T10:27:20.416Z,26.90
2023-02-14T10:29:48.730Z,27.20
2023-02-14T10:32:23.219Z,27.27
2023-02-14T10:34:52.804Z,27.10
2023-02-14T10:37:33.553Z,26.00
2023-02-14T10:40:21.562Z,22.37
2023-02-14T10:42:57.412Z,25.73
2023-02-14T10:45:32.609Z,24.80
2023-02-14T10:48:08.935Z,24.87
2023-02-14T10:50:45.801Z,26.50
2023-02-14T10:53:22.811Z,23.97
2023-02-14T10:55:55.271Z,25.40
2023-02-14T10:58:25.394Z,24.07
2023-02-14T11:01:04.808Z,24.47
2023-02-14T11:03:35.059Z,24.10
2023-02-14T11:06:03.092Z,22.63
2023-02-14T11:08:35.438Z,24.33
2023-02-14T11:11:11.764Z,23.93
2023-02-14T11:13:40.685Z,25.50
2023-02-14T11:16:12.642Z,22.20
2023-02-14T11:18:42.662Z,22.27
2023-02-14T11:21:13.129Z,25.10
2023-02-14T11:23:44.192Z,21.90
2023-02-14T11:26:24.352Z,24.27
2023-02-14T11:28:56.331Z,25.53
2023-02-14T11:31:34.202Z,24.00
2023-02-14T11:34:07.770Z,22.47
2023-02-14T11:36:42.054Z,23.77
2023-02-14T11:39:24.682Z,20.87
2023-02-14T11:41:55.444Z,22.63
2023-02-14T11:44:26.093Z,23.63
2023-02-14T11:46:55.820Z,22.43
2023-02-14T11:49:28.634Z,20.63
2023-02-14T11:51:58.502Z,21.37
2023-02-14T11:54:34.571Z,21.37
2023-02-14T11:57:08.764Z,22.37
2023-02-14T11:59:42.942Z,21.83
2023-02-14T12:02:19.746Z,23.00
2023-02-14T12:04:51.008Z,22.20
2023-02-14T12:07:22.591Z,22.17
2023-02-14T12:10:24.097Z,21.43
2023-02-14T12:12:59.275Z,21.57
2023-02-14T12:15:37.708Z,22.27
2023-02-14T12:18:31.715Z,20.47
2023-02-14T12:21:09.438Z,21.17
2023-02-14T12:23:43.082Z,21.00
2023-02-14T12:26:22.190Z,21.93
2023-02-14T12:28:57.966Z,21.47
2023-02-14T12:31:26.433Z,21.97
2023-02-14T12:33:54.905Z,21.17
2023-02-14T12:36:39.849Z,20.93
2023-02-14T12:39:14.026Z,21.63
2023-02-14T12:41:51.969Z,20.77
2023-02-14T12:44:30.697Z,21.13
2023-02-14T12:47:11.176Z,20.70
2023-02-14T12:50:15.862Z,22.13
2023-02-14T12:53:08.023Z,21.33
2023-02-14T12:55:48.694Z,20.27
2023-02-14T12:58:30.380Z,20.90
2023-02-14T13:01:16.263Z,20.40
2023-02-14T13:04:15.732Z,22.93
2023-02-14T13:06:49.203Z,20.80
2023-02-14T13:09:30.458Z,23.93
2023-02-14T13:12:09.143Z,22.47
2023-02-14T13:14:47.784Z,20.30
2023-02-14T13:17:27.288Z,21.73
2023-02-14T13:20:03.448Z,22.20
2023-02-14T13:22:33.968Z,21.50
2023-02-14T13:25:06.419Z,21.10
2023-02-14T13:27:38.638Z,21.47
2023-02-14T13:30:17.267Z,22.07
2023-02-14T13:32:47.955Z,22.33
2023-02-14T13:35:18.258Z,21.73
2023-02-14T13:37:54.411Z,21.80
2023-02-14T13:40:24.682Z,21.30
2023-02-14T13:42:55.658Z,24.70
2023-02-14T13:45:58.915Z,22.50
2023-02-14T13:48:29.318Z,20.63
2023-02-14T13:51:00.374Z,23.57
2023-02-14T13:53:40.456Z,25.67
2023-02-14T13:56:33.880Z,23.03
2023-02-14T13:59:05.485Z,20.37
2023-02-14T14:01:40.525Z,24.67
2023-02-14T14:04:36.735Z,20.33
2023-02-14T14:07:31.648Z,20.50
2023-02-14T14:10:02.730Z,23.70
2023-02-14T14:12:41.776Z,22.80
2023-02-14T14:15:18.720Z,21.43
2023-02-14T14:17:50.986Z,22.50
2023-02-14T14:20:41.858Z,22.17
2023-02-14T14:23:32.629Z,20.97
2023-02-14T14:26:02.254Z,22.33
2023-02-14T14:28:33.271Z,22.17
2023-02-14T14:31:01.598Z,23.67
2023-02-14T14:33:32.096Z,23.23
2023-02-14T14:36:04.089Z,22.13
2023-02-14T14:38:35.098Z,22.67
2023-02-14T14:41:03.740Z,22.80
2023-02-14T14:43:35.019Z,22.57
2023-02-14T14:46:05.107Z,23.60
2023-02-14T14:48:38.219Z,23.07
2023-02-14T14:51:10.660Z,22.80
2023-02-14T14:53:45.303Z,23.03
2023-02-14T14:56:14.944Z,21.13
2023-02-14T14:58:43.383Z,22.67
2023-02-14T15:01:21.162Z,22.67
2023-02-14T15:03:49.964Z,22.20
2023-02-14T15:06:22.383Z,18.73
2023-02-14T15:08:51.489Z,21.53
2023-02-14T15:11:40.949Z,22.63
2023-02-14T15:14:11.939Z,20.07
2023-02-14T15:16:45.649Z,22.80
2023-02-14T15:19:21.652Z,22.43
2023-02-14T15:21:51.465Z,21.17
2023-02-14T15:24:20.312Z,25.93
2023-02-14T15:26:51.617Z,25.13
2023-02-14T15:29:23.616Z,25.67
2023-02-14T15:31:52.635Z,24.50
2023-02-14T15:34:24.670Z,24.30
2023-02-14T15:36:57.457Z,26.10
2023-02-14T15:39:30.871Z,25.30
2023-02-14T15:41:58.868Z,25.53
2023-02-14T15:44:27.771Z,26.97
2023-02-14T15:46:58.129Z,29.33
2023-02-14T15:49:32.522Z,33.67
2023-02-14T15:52:04.658Z,32.47
2023-02-14T15:54:37.210Z,37.20
2023-02-14T15:57:07.640Z,45.30
2023-02-14T15:59:37.462Z,33.73
2023-02-14T16:02:24.851Z,32.50
2023-02-14T16:04:52.933Z,29.23
2023-02-14T16:07:28.207Z,29.53
2023-02-14T16:10:21.971Z,28.27
2023-02-14T16:12:59.109Z,31.47
2023-02-14T16:15:28.593Z,27.83
2023-02-14T16:17:56.965Z,23.27
2023-02-14T16:20:31.531Z,26.40
2023-02-14T16:23:21.933Z,26.63
2023-02-14T16:25:50.804Z,24.73
2023-02-14T16:28:19.118Z,24.33
2023-02-14T16:30:48.985Z,24.57
2023-02-14T16:33:22.633Z,23.70
2023-02-14T16:35:51.350Z,22.97
2023-02-14T16:38:22.361Z,22.13
2023-02-14T16:40:54.271Z,27.10
2023-02-14T16:43:23.269Z,24.83
2023-02-14T16:45:51.373Z,28.90
2023-02-14T16:48:19.647Z,25.10
2023-02-14T16:50:47.824Z,25.97
2023-02-14T16:53:28.789Z,25.00
2023-02-14T16:55:58.177Z,26.30
2023-02-14T16:58:30.395Z,23.93
2023-02-14T17:00:59.450Z,25.37
2023-02-14T17:03:27.822Z,25.87
2023-02-14T17:05:57.592Z,24.27
2023-02-14T17:08:27.124Z,24.73
2023-02-14T17:10:57.432Z,27.67
2023-02-14T17:13:28.645Z,26.57
2023-02-14T17:15:57.642Z,26.23
2023-02-14T17:18:26.386Z,26.63
2023-02-14T17:20:55.702Z,24.57
2023-02-14T17:23:24.426Z,26.47
2023-02-14T17:25:54.017Z,24.33
2023-02-14T17:28:22.102Z,25.87
2023-02-14T17:30:50.092Z,25.93
2023-02-14T17:33:18.080Z,24.30
2023-02-14T17:35:46.205Z,25.77
2023-02-14T17:38:14.508Z,24.93
2023-02-14T17:40:42.532Z,26.13
2023-02-14T17:43:11.969Z,27.23
2023-02-14T17:45:40.199Z,22.37
2023-02-14T17:48:10.806Z,24.80
2023-02-14T17:50:39.647Z,25.77
2023-02-14T17:53:07.755Z,25.00
2023-02-14T17:55:37.562Z,26.40
2023-02-14T17:58:05.642Z,26.27
2023-02-14T18:00:34.989Z,28.23
2023-02-14T18:03:03.698Z,27.70
2023-02-14T18:05:32.085Z,28.80
2023-02-14T18:08:00.118Z,29.83
2023-02-14T18:10:28.379Z,33.93
2023-02-14T18:12:56.378Z,32.10
2023-02-14T18:15:24.391Z,34.43
2023-02-14T18:17:53.750Z,28.63
2023-02-14T18:20:21.843Z,33.77
2023-02-14T18:22:49.830Z,35.53
2023-02-14T18:25:17.902Z,36.63
2023-02-14T18:27:45.908Z,38.10
2023-02-14T18:30:14.839Z,49.73
2023-02-14T18:32:42.862Z,34.30
2023-02-14T18:35:12.435Z,35.93
2023-02-14T18:37:41.941Z,29.03
2023-02-14T18:40:11.408Z,31.20
2023-02-14T18:42:39.430Z,29.17
2023-02-14T18:45:08.390Z,28.10
2023-02-14T18:47:36.383Z,27.07
2023-02-14T18:50:04.480Z,30.00
2023-02-14T18:52:36.050Z,30.03
2023-02-14T18:55:04.574Z,28.07
2023-02-14T18:57:34.639Z,25.60
2023-02-14T19:00:06.760Z,32.87
2023-02-14T19:02:34.793Z,28.60
2023-02-14T19:05:04.188Z,28.90
2023-02-14T19:07:33.553Z,33.13
2023-02-14T19:10:01.769Z,35.03
2023-02-14T19:12:32.023Z,34.73
2023-02-14T19:15:00.129Z,32.80
2023-02-14T19:17:28.274Z,37.57
2023-02-14T19:19:56.445Z,32.13
2023-02-14T19:22:24.941Z,35.50
2023-02-14T19:24:54.595Z,29.33
2023-02-14T19:27:23.897Z,32.33
2023-02-14T19:29:52.041Z,33.20
2023-02-14T19:32:20.103Z,30.53
2023-02-14T19:34:48.360Z,32.27
2023-02-14T19:37:16.652Z,29.23
2023-02-14T19:39:44.645Z,31.60
2023-02-14T19:42:14.007Z,28.57
2023-02-14T19:44:42.293Z,33.40
2023-02-14T19:47:28.744Z,33.27
2023-02-14T19:50:01.845Z,30.53
2023-02-14T19:52:29.847Z,32.93
2023-02-14T19:54:57.949Z,33.63
2023-02-14T19:57:27.453Z,37.70
2023-02-14T19:59:55.472Z,34.43
2023-02-14T20:02:23.686Z,35.93
2023-02-14T20:04:53.483Z,37.73
2023-02-14T20:07:22.009Z,38.00
2023-02-14T20:09:50.229Z,40.10
2023-02-14T20:12:18.213Z,36.80
2023-02-14T20:14:51.660Z,41.87
2023-02-14T20:17:20.487Z,44.37
2023-02-14T20:19:48.898Z,57.70
2023-02-14T20:22:16.906Z,54.97
2023-02-14T20:24:45.090Z,46.10
2023-02-14T20:27:13.175Z,41.47
2023-02-14T20:29:43.205Z,43.30
2023-02-14T20:32:13.352Z,44.13
2023-02-14T20:34:42.910Z,44.80
2023-02-14T20:37:11.200Z,38.23
2023-02-14T20:39:39.708Z,39.80
2023-02-14T20:42:08.596Z,44.87
2023-02-14T20:44:36.918Z,44.27
2023-02-14T20:47:06.388Z,37.97
2023-02-14T20:49:35.843Z,34.50
2023-02-14T20:52:04.515Z,32.97
2023-02-14T20:54:32.511Z,32.13
2023-02-14T20:57:00.519Z,30.33
2023-02-14T20:59:28.921Z,32.80
2023-02-14T21:01:58.639Z,32.60
2023-02-14T21:04:26.850Z,33.40
2023-02-14T21:06:57.794Z,35.77
2023-02-14T21:09:25.923Z,37.70
2023-02-14T21:11:54.764Z,36.10
2023-02-14T21:14:22.935Z,37.97
2023-02-14T21:16:51.020Z,39.30
2023-02-14T21:19:19.819Z,35.33
2023-02-14T21:21:47.832Z,32.13
2023-02-14T21:24:17.685Z,32.30
2023-02-14T21:26:46.456Z,31.30
2023-02-14T21:29:14.479Z,29.23
2023-02-14T21:31:43.070Z,29.63
2023-02-14T21:34:11.140Z,30.37
2023-02-14T21:36:39.137Z,27.13
2023-02-14T21:39:08.113Z,28.17
2023-02-14T21:41:38.208Z,32.80
2023-02-14T21:44:07.219Z,27.47
2023-02-14T21:46:38.294Z,30.33
2023-02-14T21:49:24.492Z,27.40
2023-02-14T21:51:52.503Z,28.03
2023-02-14T21:54:20.574Z,29.83
2023-02-14T21:56:50.240Z,28.47
2023-02-14T21:59:18.399Z,30.37
2023-02-14T22:01:46.511Z,28.50
2023-02-14T22:04:14.730Z,32.63
2023-02-14T22:06:43.636Z,29.83
2023-02-14T22:09:14.912Z,29.97
2023-02-14T22:11:43.079Z,30.73
2023-02-14T22:14:14.494Z,28.87
2023-02-14T22:16:42.901Z,31.20
2023-02-14T22:19:14.952Z,32.83
2023-02-14T22:21:43.410Z,33.60
2023-02-14T22:24:12.505Z,29.47
2023-02-14T22:26:41.644Z,29.33
2023-02-14T22:29:12.476Z,32.77
2023-02-14T22:31:42.856Z,29.47
2023-02-14T22:34:13.142Z,29.20
2023-02-14T22:36:41.329Z,21.33
2023-02-14T22:39:09.432Z,25.53
2023-02-14T22:41:38.039Z,23.37
2023-02-14T22:44:06.876Z,26.93
2023-02-14T22:46:37.634Z,29.20
2023-02-14T22:49:06.420Z,28.07
2023-02-14T22:51:36.403Z,29.23
2023-02-14T22:54:06.590Z,23.17
2023-02-14T22:56:38.645Z,23.10
2023-02-14T22:59:09.547Z,26.07
2023-02-14T23:01:39.194Z,27.00
2023-02-14T23:04:07.720Z,24.97
2023-02-14T23:06:37.689Z,30.43
2023-02-14T23:09:08.160Z,27.57
2023-02-14T23:11:37.744Z,25.30
2023-02-14T23:14:24.521Z,28.87
2023-02-14T23:17:11.686Z,24.60
2023-02-14T23:19:57.276Z,26.33
2023-02-14T23:22:27.541Z,25.67
2023-02-14T23:24:57.466Z,23.90
2023-02-14T23:27:27.350Z,26.03
2023-02-14T23:29:55.330Z,29.53
2023-02-14T23:32:24.650Z,26.97
2023-02-14T23:34:52.658Z,30.07
2023-02-14T23:37:20.724Z,28.30
2023-02-14T23:39:48.745Z,30.37
2023-02-14T23:42:17.450Z,31.13
2023-02-14T23:44:46.688Z,29.87
2023-02-14T23:47:15.902Z,28.53
2023-02-14T23:49:45.964Z,28.03
2023-02-14T23:52:14.863Z,32.43
2023-02-14T23:54:43.979Z,31.80
2023-02-14T23:57:12.045Z,31.93
2023-02-14T23:59:40.050Z,29.30
